createdAt,value
2018-03-24T00:01:33.988Z,24.53
2018-03-24T00:04:09.178Z,22.87
2018-03-24T00:06:45.034Z,22.90
2018-03-24T00:09:20.141Z,20.07
2018-03-24T00:11:55.219Z,17.90
2018-03-24T00:14:31.093Z,17.93
2018-03-24T00:17:06.297Z,19.53
2018-03-24T00:19:41.513Z,23.93
2018-03-24T00:22:16.668Z,17.30
2018-03-24T00:24:52.914Z,20.33
2018-03-24T00:27:28.014Z,18.53
2018-03-24T00:30:03.097Z,21.33
2018-03-24T00:32:38.157Z,22.73
2018-03-24T00:42:08.215Z,19.40
2018-03-24T00:44:43.675Z,24.03
2018-03-24T00:47:19.132Z,21.30
2018-03-24T00:49:54.495Z,18.43
2018-03-24T00:52:29.981Z,23.33
2018-03-24T00:55:05.199Z,22.67
2018-03-24T00:57:40.433Z,27.80
2018-03-24T01:00:15.574Z,18.13
2018-03-24T01:02:51.030Z,17.20
2018-03-24T01:05:26.317Z,23.00
2018-03-24T01:08:01.631Z,22.30
2018-03-24T01:10:36.994Z,21.93
2018-03-24T01:13:12.292Z,18.73
2018-03-24T01:15:48.207Z,24.00
2018-03-24T01:18:23.377Z,17.57
2018-03-24T01:20:58.899Z,19.43
2018-03-24T01:23:34.243Z,16.90
2018-03-24T01:26:09.650Z,21.83
2018-03-24T01:28:44.985Z,18.90
2018-03-24T01:31:20.248Z,20.07
2018-03-24T01:33:55.615Z,18.63
2018-03-24T01:36:31.839Z,19.67
2018-03-24T01:39:07.046Z,24.10
2018-03-24T01:41:43.128Z,21.80
2018-03-24T01:44:19.099Z,22.13
2018-03-24T01:46:55.045Z,18.00
2018-03-24T01:49:30.973Z,20.03
2018-03-24T01:52:07.124Z,19.57
2018-03-24T01:54:44.101Z,25.73
2018-03-24T01:57:20.299Z,25.13
2018-03-24T01:59:55.767Z,20.73
2018-03-24T02:02:31.153Z,28.30
2018-03-24T02:05:06.418Z,18.97
2018-03-24T02:07:41.792Z,22.47
2018-03-24T02:10:17.087Z,20.43
2018-03-24T02:12:52.557Z,25.13
2018-03-24T02:18:17.370Z,18.93
2018-03-24T02:20:58.911Z,21.30
2018-03-24T02:23:34.541Z,24.13
2018-03-24T02:26:09.897Z,18.03
2018-03-24T02:28:45.174Z,22.10
2018-03-24T02:31:21.164Z,21.60
2018-03-24T02:33:56.444Z,21.90
2018-03-24T02:36:31.735Z,25.43
2018-03-24T02:39:07.016Z,24.20
2018-03-24T02:41:42.317Z,23.67
2018-03-24T02:44:18.578Z,20.80
2018-03-24T02:46:54.576Z,20.70
2018-03-24T02:49:30.126Z,21.93
2018-03-24T02:52:05.583Z,22.70
2018-03-24T02:54:40.881Z,23.13
2018-03-24T02:57:16.323Z,22.20
2018-03-24T02:59:51.634Z,18.30
2018-03-24T03:02:27.574Z,23.97
2018-03-24T03:05:02.792Z,29.90
2018-03-24T03:07:38.728Z,25.60
2018-03-24T03:10:14.379Z,29.57
2018-03-24T03:12:49.558Z,25.73
2018-03-24T03:15:24.700Z,28.67
2018-03-24T03:18:00.037Z,22.93
2018-03-24T03:20:35.341Z,23.33
2018-03-24T03:23:10.704Z,22.73
2018-03-24T03:25:46.287Z,35.13
2018-03-24T03:28:21.481Z,24.73
2018-03-24T03:33:51.582Z,26.80
2018-03-24T03:36:27.666Z,32.30
2018-03-24T03:39:03.020Z,30.50
2018-03-24T03:41:39.391Z,28.53
2018-03-24T03:44:14.637Z,33.73
2018-03-24T03:46:49.800Z,27.30
2018-03-24T03:49:25.107Z,26.30
2018-03-24T03:52:00.400Z,32.37
2018-03-24T03:54:35.599Z,23.07
2018-03-24T03:57:10.845Z,28.10
2018-03-24T03:59:46.153Z,27.60
2018-03-24T04:02:21.483Z,31.00
2018-03-24T04:04:56.956Z,25.10
2018-03-24T04:07:32.222Z,26.27
2018-03-24T04:10:08.215Z,27.60
2018-03-24T04:12:44.198Z,27.60
2018-03-24T04:15:20.154Z,25.10
2018-03-24T04:17:55.304Z,29.33
2018-03-24T04:20:30.489Z,26.13
2018-03-24T04:23:05.735Z,29.90
2018-03-24T04:25:40.836Z,27.70
2018-03-24T04:28:16.204Z,29.00
2018-03-24T04:30:51.358Z,31.80
2018-03-24T04:33:26.513Z,31.80
2018-03-24T04:36:01.857Z,26.57
2018-03-24T04:38:37.121Z,28.57
2018-03-24T04:41:12.273Z,33.37
2018-03-24T04:43:47.686Z,36.50
2018-03-24T04:46:24.648Z,33.50
2018-03-24T04:48:59.778Z,30.90
2018-03-24T04:51:35.040Z,37.80
2018-03-24T04:54:11.207Z,41.10
2018-03-24T04:56:47.679Z,40.63
2018-03-24T04:59:23.050Z,59.03
2018-03-24T05:01:59.057Z,57.23
2018-03-24T05:04:34.162Z,106.30
2018-03-24T05:07:09.599Z,91.37
2018-03-24T05:09:45.599Z,68.13
2018-03-24T05:12:20.769Z,108.67
2018-03-24T05:14:56.088Z,49.40
2018-03-24T05:17:31.350Z,75.97
2018-03-24T05:20:06.527Z,58.77
2018-03-24T05:22:42.591Z,46.73
2018-03-24T05:25:18.571Z,58.20
2018-03-24T05:27:53.918Z,52.43
2018-03-24T05:30:29.129Z,56.07
2018-03-24T05:33:04.410Z,53.00
2018-03-24T05:35:39.603Z,53.53
2018-03-24T05:38:15.656Z,68.23
2018-03-24T05:40:50.925Z,32.93
2018-03-24T05:43:26.989Z,37.93
2018-03-24T05:46:02.188Z,42.87
2018-03-24T05:48:37.586Z,58.67
2018-03-24T05:51:12.854Z,54.93
2018-03-24T05:53:48.164Z,73.90
2018-03-24T05:56:23.401Z,51.37
2018-03-24T05:58:58.712Z,48.30
2018-03-24T06:01:33.871Z,55.63
2018-03-24T06:04:09.173Z,65.23
2018-03-24T06:06:44.491Z,45.07
2018-03-24T06:09:19.971Z,70.47
2018-03-24T06:11:55.161Z,67.47
2018-03-24T06:14:30.276Z,49.87
2018-03-24T06:17:05.666Z,69.03
2018-03-24T06:19:41.693Z,61.97
2018-03-24T06:22:16.819Z,91.50
2018-03-24T06:24:52.028Z,44.87
2018-03-24T06:27:28.299Z,48.37
2018-03-24T06:30:18.454Z,40.37
2018-03-24T06:32:53.885Z,61.57
2018-03-24T06:35:29.857Z,57.67
2018-03-24T06:38:05.202Z,44.63
2018-03-24T06:40:40.491Z,38.03
2018-03-24T06:43:17.615Z,47.97
2018-03-24T06:45:52.894Z,63.50
2018-03-24T06:48:28.140Z,49.30
2018-03-24T06:51:03.599Z,28.43
2018-03-24T06:53:39.050Z,41.47
2018-03-24T06:56:14.329Z,39.97
2018-03-24T06:58:50.143Z,30.37
2018-03-24T07:01:26.567Z,41.47
2018-03-24T07:04:01.814Z,47.10
2018-03-24T07:06:38.340Z,28.03
2018-03-24T07:09:13.646Z,49.53
2018-03-24T07:11:49.244Z,37.63
2018-03-24T07:14:25.742Z,33.80
2018-03-24T07:17:01.153Z,45.00
2018-03-24T07:19:36.322Z,62.53
2018-03-24T07:22:11.659Z,72.60
2018-03-24T07:24:47.189Z,95.10
2018-03-24T07:27:23.254Z,46.30
2018-03-24T07:29:58.470Z,30.73
2018-03-24T07:32:33.922Z,33.10
2018-03-24T07:35:09.922Z,34.73
2018-03-24T07:37:45.491Z,28.80
2018-03-24T07:40:20.656Z,24.63
2018-03-24T07:42:55.870Z,23.90
2018-03-24T07:45:31.824Z,30.07
2018-03-24T07:48:07.188Z,22.57
2018-03-24T07:50:42.332Z,17.50
2018-03-24T07:53:18.130Z,20.07
2018-03-24T07:55:53.393Z,17.90
2018-03-24T07:58:29.575Z,24.20
2018-03-24T08:01:05.179Z,40.10
2018-03-24T08:03:40.577Z,32.87
2018-03-24T08:06:16.605Z,16.00
2018-03-24T08:08:51.740Z,14.77
2018-03-24T08:11:27.733Z,18.13
2018-03-24T08:14:04.555Z,19.40
2018-03-24T08:16:39.984Z,22.13
2018-03-24T08:19:15.147Z,18.80
2018-03-24T08:21:51.119Z,16.80
2018-03-24T08:24:26.486Z,22.80
2018-03-24T08:27:02.542Z,17.80
2018-03-24T08:29:38.429Z,19.10
2018-03-24T08:32:13.735Z,18.67
2018-03-24T08:34:48.930Z,19.77
2018-03-24T08:37:24.176Z,16.83
2018-03-24T08:40:00.297Z,18.03
2018-03-24T08:42:36.125Z,20.70
2018-03-24T08:45:11.272Z,20.57
2018-03-24T08:47:46.529Z,21.47
2018-03-24T08:50:22.480Z,19.40
2018-03-24T08:52:57.625Z,20.60
2018-03-24T08:55:33.067Z,19.60
2018-03-24T08:58:09.130Z,18.90
2018-03-24T09:00:44.552Z,17.40
2018-03-24T09:03:20.186Z,21.47
2018-03-24T09:05:55.359Z,17.80
2018-03-24T09:08:30.638Z,19.63
2018-03-24T09:11:06.572Z,17.83
2018-03-24T09:13:41.987Z,17.93
2018-03-24T09:16:17.130Z,18.80
2018-03-24T09:18:52.614Z,16.90
2018-03-24T09:21:27.897Z,18.43
2018-03-24T09:24:04.403Z,19.40
2018-03-24T09:26:39.665Z,21.23
2018-03-24T09:29:15.011Z,20.47
2018-03-24T09:31:50.306Z,18.00
2018-03-24T09:34:25.945Z,23.57
2018-03-24T09:37:01.430Z,18.07
2018-03-24T09:39:36.876Z,16.30
2018-03-24T09:42:12.181Z,15.13
2018-03-24T09:44:47.455Z,15.60
2018-03-24T09:47:22.591Z,16.70
2018-03-24T09:49:59.445Z,9.00
2018-03-24T09:52:34.708Z,9.20
2018-03-24T09:55:09.836Z,12.23
2018-03-24T09:57:45.018Z,9.97
2018-03-24T10:00:20.981Z,7.53
2018-03-24T10:02:56.311Z,8.33
2018-03-24T10:05:32.591Z,8.00
2018-03-24T10:08:07.735Z,7.60
2018-03-24T10:10:43.092Z,8.47
2018-03-24T10:13:18.233Z,9.43
2018-03-24T10:15:54.640Z,7.13
2018-03-24T10:18:29.776Z,6.90
2018-03-24T10:35:16.679Z,19.80
2018-03-24T10:37:57.157Z,12.80
2018-03-24T10:40:39.045Z,10.03
2018-03-24T10:43:19.713Z,7.23
2018-03-24T10:45:55.821Z,11.90
2018-03-24T10:48:35.180Z,10.03
2018-03-24T10:51:21.020Z,9.63
2018-03-24T10:53:59.192Z,7.60
2018-03-24T10:56:34.816Z,8.80
2018-03-24T10:59:23.610Z,8.17
2018-03-24T11:02:07.895Z,9.70
2018-03-24T11:04:48.741Z,7.47
2018-03-24T11:07:41.726Z,7.40
2018-03-24T11:10:17.972Z,10.40
2018-03-24T11:12:55.067Z,9.87
2018-03-24T11:15:32.160Z,8.40
2018-03-24T11:18:32.573Z,9.33
2018-03-24T11:26:54.850Z,8.80
2018-03-24T11:29:40.399Z,11.60
2018-03-24T11:44:52.479Z,10.10
2018-03-24T11:47:27.652Z,9.53
2018-03-24T11:50:03.672Z,8.50
2018-03-24T11:52:40.210Z,11.27
2018-03-24T11:55:15.341Z,9.43
2018-03-24T11:57:50.432Z,14.80
2018-03-24T12:00:25.936Z,8.57
2018-03-24T12:03:01.273Z,12.10
2018-03-24T12:05:37.430Z,9.10
2018-03-24T12:08:12.575Z,10.20
2018-03-24T12:10:47.806Z,10.80
2018-03-24T12:13:23.220Z,12.33
2018-03-24T12:15:59.175Z,7.53
2018-03-24T12:18:34.461Z,8.33
2018-03-24T12:21:10.064Z,9.07
2018-03-24T12:23:45.158Z,11.93
2018-03-24T12:26:22.473Z,9.83
2018-03-24T12:28:57.757Z,17.30
2018-03-24T12:31:33.319Z,9.27
2018-03-24T12:34:09.416Z,11.33
2018-03-24T12:36:44.736Z,9.07
2018-03-24T12:39:19.913Z,12.90
2018-03-24T12:41:55.172Z,15.03
2018-03-24T12:44:30.874Z,11.63
2018-03-24T12:47:06.048Z,12.97
2018-03-24T12:49:41.270Z,13.10
2018-03-24T12:52:16.610Z,9.63
2018-03-24T12:54:53.064Z,10.30
2018-03-24T12:57:28.169Z,9.33
2018-03-24T13:00:03.479Z,9.83
2018-03-24T13:02:39.099Z,12.10
2018-03-24T13:05:15.116Z,12.10
2018-03-24T13:07:53.831Z,8.83
2018-03-24T13:10:33.578Z,5.70
2018-03-24T13:13:08.688Z,8.00
2018-03-24T13:15:44.008Z,10.43
2018-03-24T13:18:19.459Z,8.90
2018-03-24T13:20:55.252Z,9.57
2018-03-24T13:23:30.256Z,8.53
2018-03-24T13:26:05.626Z,8.50
2018-03-24T13:28:40.763Z,9.40
2018-03-24T13:31:16.774Z,10.70
2018-03-24T13:33:52.741Z,16.63
2018-03-24T13:36:27.863Z,7.73
2018-03-24T13:39:03.117Z,8.07
2018-03-24T13:41:38.384Z,6.80
2018-03-24T13:44:13.786Z,7.40
2018-03-24T13:46:49.084Z,8.20
2018-03-24T13:49:25.019Z,7.17
2018-03-24T13:52:00.327Z,8.27
2018-03-24T13:54:35.796Z,7.73
2018-03-24T13:57:10.941Z,13.83
2018-03-24T13:59:46.200Z,9.57
2018-03-24T14:02:21.291Z,11.80
2018-03-24T14:04:56.623Z,9.77
2018-03-24T14:07:31.830Z,9.13
2018-03-24T14:10:07.119Z,6.33
2018-03-24T14:12:42.346Z,6.50
2018-03-24T14:15:17.537Z,8.03
2018-03-24T14:17:53.483Z,10.10
2018-03-24T14:20:28.721Z,7.37
2018-03-24T14:23:04.041Z,8.93
2018-03-24T14:25:39.631Z,9.07
2018-03-24T14:28:14.960Z,8.17
2018-03-24T14:30:50.260Z,6.07
2018-03-24T14:33:26.220Z,12.07
2018-03-24T14:36:01.393Z,10.33
2018-03-24T14:38:36.555Z,6.80
2018-03-24T14:41:12.508Z,5.37
2018-03-24T14:43:48.530Z,8.47
2018-03-24T14:46:23.726Z,9.93
2018-03-24T14:48:58.845Z,10.83
2018-03-24T14:51:34.422Z,10.13
2018-03-24T14:54:10.312Z,8.13
2018-03-24T14:56:47.371Z,7.73
2018-03-24T14:59:22.683Z,10.07
2018-03-24T15:01:57.976Z,13.57
2018-03-24T15:04:33.956Z,7.17
2018-03-24T15:07:09.862Z,7.27
2018-03-24T15:09:45.840Z,20.67
2018-03-24T15:12:21.830Z,8.03
2018-03-24T15:14:56.925Z,7.53
2018-03-24T15:17:32.134Z,11.33
2018-03-24T15:20:08.158Z,6.83
2018-03-24T15:22:43.283Z,9.67
2018-03-24T15:25:18.488Z,9.27
2018-03-24T15:27:53.810Z,9.33
2018-03-24T15:30:46.919Z,8.57
2018-03-24T15:33:40.962Z,10.60
2018-03-24T15:36:34.785Z,10.27
2018-03-24T15:39:10.123Z,9.80
2018-03-24T15:41:46.186Z,7.87
2018-03-24T15:44:21.658Z,7.90
2018-03-24T15:46:56.734Z,6.93
2018-03-24T15:49:32.350Z,8.30
2018-03-24T15:52:07.434Z,10.23
2018-03-24T15:54:43.393Z,6.70
2018-03-24T15:57:18.529Z,6.70
2018-03-24T15:59:53.651Z,9.43
2018-03-24T16:02:28.887Z,6.67
2018-03-24T16:05:04.000Z,7.27
2018-03-24T16:07:39.214Z,9.30
2018-03-24T16:10:15.421Z,7.43
2018-03-24T16:12:50.782Z,7.03
2018-03-24T16:15:26.156Z,24.67
2018-03-24T16:18:01.419Z,6.73
2018-03-24T16:20:36.721Z,12.50
2018-03-24T16:23:12.352Z,9.60
2018-03-24T16:25:47.610Z,10.77
2018-03-24T16:28:22.938Z,7.70
2018-03-24T16:30:58.057Z,7.40
2018-03-24T16:33:33.595Z,7.77
2018-03-24T16:36:09.467Z,6.57
2018-03-24T16:38:44.899Z,9.40
2018-03-24T16:41:20.813Z,7.90
2018-03-24T16:43:55.962Z,7.47
2018-03-24T16:46:31.130Z,11.13
2018-03-24T16:49:06.283Z,9.80
2018-03-24T16:51:41.399Z,8.20
2018-03-24T16:54:16.667Z,9.40
2018-03-24T16:56:52.621Z,9.27
2018-03-24T16:59:27.820Z,9.57
2018-03-24T17:02:03.030Z,11.00
2018-03-24T17:04:38.474Z,9.43
2018-03-24T17:07:13.732Z,10.70
2018-03-24T17:09:49.914Z,12.27
2018-03-24T17:12:25.185Z,9.83
2018-03-24T17:15:00.566Z,8.37
2018-03-24T17:17:35.873Z,11.23
2018-03-24T17:20:11.368Z,9.50
2018-03-24T17:22:46.675Z,8.30
2018-03-24T17:25:22.718Z,13.93
2018-03-24T17:27:58.892Z,11.07
2018-03-24T17:30:34.134Z,9.83
2018-03-24T17:33:10.107Z,9.20
2018-03-24T17:35:45.946Z,10.37
2018-03-24T17:38:21.236Z,11.37
2018-03-24T17:40:56.386Z,10.53
2018-03-24T17:43:32.318Z,10.80
2018-03-24T17:46:08.000Z,9.53
2018-03-24T17:48:43.321Z,9.17
2018-03-24T17:51:18.650Z,10.47
2018-03-24T17:53:54.656Z,10.87
2018-03-24T17:56:30.104Z,11.03
2018-03-24T17:59:05.349Z,12.87
2018-03-24T18:01:41.413Z,9.30
2018-03-24T18:04:16.539Z,13.50
2018-03-24T18:06:51.849Z,11.60
2018-03-24T18:09:26.978Z,14.40
2018-03-24T18:12:03.165Z,12.17
2018-03-24T18:14:38.340Z,9.43
2018-03-24T18:17:13.602Z,11.87
2018-03-24T18:19:48.847Z,8.87
2018-03-24T18:22:24.380Z,10.17
2018-03-24T18:24:59.715Z,11.90
2018-03-24T18:27:35.077Z,10.87
2018-03-24T18:30:10.263Z,16.27
2018-03-24T18:32:45.890Z,15.13
2018-03-24T18:35:21.123Z,10.33
2018-03-24T18:37:56.265Z,11.63
2018-03-24T18:40:31.400Z,9.57
2018-03-24T18:43:06.658Z,8.47
2018-03-24T18:45:42.070Z,10.00
2018-03-24T18:48:17.412Z,36.77
2018-03-24T18:50:52.616Z,9.37
2018-03-24T18:53:27.900Z,25.20
2018-03-24T18:56:03.393Z,28.03
2018-03-24T18:58:38.655Z,21.00
2018-03-24T19:01:14.747Z,14.70
2018-03-24T19:03:50.083Z,13.53
2018-03-24T19:06:26.523Z,14.07
2018-03-24T19:09:02.417Z,16.93
2018-03-24T19:11:37.649Z,15.00
2018-03-24T19:14:13.656Z,32.17
2018-03-24T19:16:48.939Z,30.80
2018-03-24T19:19:24.139Z,21.53
2018-03-24T19:22:00.119Z,19.70
2018-03-24T19:24:35.243Z,19.83
2018-03-24T19:27:10.387Z,16.37
2018-03-24T19:29:46.465Z,19.97
2018-03-24T19:32:21.571Z,13.83
2018-03-24T19:34:56.893Z,14.73
2018-03-24T19:37:32.049Z,14.03
2018-03-24T19:40:07.317Z,31.33
2018-03-24T19:42:42.465Z,24.50
2018-03-24T19:45:18.540Z,16.53
2018-03-24T19:47:53.843Z,12.73
2018-03-24T19:50:29.125Z,19.57
2018-03-24T19:53:04.575Z,19.23
2018-03-24T19:55:40.646Z,24.97
2018-03-24T19:58:15.905Z,21.00
2018-03-24T20:00:51.487Z,14.40
2018-03-24T20:03:26.788Z,18.17
2018-03-24T20:06:02.282Z,30.17
2018-03-24T20:08:37.615Z,18.87
2018-03-24T20:11:12.951Z,15.20
2018-03-24T20:13:48.232Z,15.37
2018-03-24T20:16:23.594Z,18.37
2018-03-24T20:18:58.766Z,19.13
2018-03-24T20:21:33.908Z,16.03
2018-03-24T20:24:09.134Z,18.30
2018-03-24T20:26:45.153Z,16.90
2018-03-24T20:29:20.515Z,18.87
2018-03-24T20:31:55.858Z,31.63
2018-03-24T20:34:31.120Z,16.37
2018-03-24T20:37:06.244Z,13.70
2018-03-24T20:39:42.300Z,17.80
2018-03-24T20:42:18.489Z,15.40
2018-03-24T20:44:53.669Z,13.20
2018-03-24T20:47:29.618Z,17.20
2018-03-24T20:50:05.079Z,14.90
2018-03-24T20:52:40.258Z,15.20
2018-03-24T20:55:15.832Z,12.10
2018-03-24T20:57:51.216Z,19.30
2018-03-24T21:00:26.569Z,16.00
2018-03-24T21:03:01.843Z,13.57
2018-03-24T21:05:37.974Z,14.03
2018-03-24T21:08:14.897Z,16.20
2018-03-24T21:10:50.904Z,15.40
2018-03-24T21:13:26.987Z,16.47
2018-03-24T21:16:02.921Z,12.30
2018-03-24T21:18:38.131Z,17.40
2018-03-24T21:21:13.319Z,15.30
2018-03-24T21:23:49.618Z,13.10
2018-03-24T21:26:24.830Z,15.80
2018-03-24T21:29:00.274Z,14.57
2018-03-24T21:31:35.330Z,19.60
2018-03-24T21:34:11.273Z,26.50
2018-03-24T21:36:46.576Z,41.77
2018-03-24T21:39:22.089Z,28.30
2018-03-24T21:41:57.306Z,34.33
2018-03-24T21:44:32.674Z,35.23
2018-03-24T21:47:08.021Z,39.03
2018-03-24T21:49:43.306Z,24.40
2018-03-24T21:52:18.623Z,25.60
2018-03-24T21:54:53.852Z,31.70
2018-03-24T21:57:29.256Z,21.23
2018-03-24T22:00:04.537Z,24.37
2018-03-24T22:02:40.557Z,20.80
2018-03-24T22:05:15.696Z,15.93
2018-03-24T22:07:52.374Z,16.00
2018-03-24T22:10:27.672Z,13.43
2018-03-24T22:13:02.953Z,12.00
2018-03-24T22:15:38.241Z,13.03
2018-03-24T22:18:13.792Z,12.40
2018-03-24T22:20:49.719Z,11.60
2018-03-24T22:23:25.970Z,11.90
2018-03-24T22:26:01.096Z,10.20
2018-03-24T22:28:36.724Z,12.40
2018-03-24T22:31:12.097Z,14.67
2018-03-24T22:33:47.496Z,13.30
2018-03-24T22:36:22.819Z,14.60
2018-03-24T22:38:58.163Z,9.77
2018-03-24T22:41:33.418Z,14.10
2018-03-24T22:44:09.542Z,12.47
2018-03-24T22:46:44.655Z,13.23
2018-03-24T22:49:20.033Z,12.80
2018-03-24T22:51:55.382Z,10.40
2018-03-24T22:54:30.755Z,13.10
2018-03-24T22:57:06.068Z,14.03
2018-03-24T22:59:42.085Z,10.97
2018-03-24T23:02:17.354Z,14.80
2018-03-24T23:04:52.473Z,16.03
2018-03-24T23:07:27.596Z,12.87
2018-03-24T23:10:02.893Z,16.33
2018-03-24T23:12:38.021Z,17.37
2018-03-24T23:15:13.229Z,12.13
2018-03-24T23:17:48.527Z,12.47
2018-03-24T23:20:23.703Z,17.23
2018-03-24T23:22:59.033Z,11.70
2018-03-24T23:25:34.325Z,15.10
2018-03-24T23:28:09.667Z,12.00
2018-03-24T23:30:45.053Z,16.40
2018-03-24T23:33:20.982Z,13.10
2018-03-24T23:35:56.368Z,14.53
2018-03-24T23:38:31.585Z,15.00
2018-03-24T23:41:06.841Z,15.63
2018-03-24T23:43:42.001Z,13.47
2018-03-24T23:46:17.632Z,11.77
2018-03-24T23:48:52.806Z,14.87
2018-03-24T23:51:28.371Z,16.57
2018-03-24T23:54:03.589Z,15.67
2018-03-24T23:56:38.869Z,13.90
2018-03-24T23:59:14.224Z,15.57
